Time;durP1;ratioP1;P1;durP2;ratioP2;P2;SDS_P1;SDS_P2;PMS_P1;PMS_P2;Temp;Humidity;BMP_temperature;BMP_pressure;BME280_temperature;BME280_humidity;BME280_pressure;Samples;Min_cycle;Max_cycle;Signal;HPM_P1;HPM_P2
2023/09/12 00:00:48;;;;;;;21.27;9.80;;;23.80;99.90;;;;;;5073973;28;20032;-69
2023/09/12 00:03:14;;;;;;;17.33;9.13;;;23.80;99.90;;;;;;5074296;28;20024;-69
2023/09/12 00:05:40;;;;;;;18.15;9.48;;;23.80;99.90;;;;;;5073787;28;20209;-70
2023/09/12 00:08:06;;;;;;;14.73;9.68;;;23.80;99.90;;;;;;5073592;28;20048;-69
2023/09/12 00:10:32;;;;;;;14.43;9.18;;;23.80;99.90;;;;;;5073633;28;20036;-70
2023/09/12 00:13:02;;;;;;;14.00;9.90;;;23.80;99.90;;;;;;5073899;28;20097;-70
2023/09/12 00:15:28;;;;;;;19.08;10.45;;;23.70;99.90;;;;;;5073606;28;20100;-69
2023/09/12 00:17:53;;;;;;;25.33;10.05;;;23.60;99.90;;;;;;5073626;28;20036;-69
2023/09/12 00:20:19;;;;;;;22.35;10.70;;;23.50;99.90;;;;;;5074208;28;20024;-69
2023/09/12 00:22:45;;;;;;;17.15;9.38;;;23.50;99.90;;;;;;5073637;28;20415;-69
2023/09/12 00:25:11;;;;;;;22.88;10.57;;;23.50;99.90;;;;;;5073526;28;20039;-69
2023/09/12 00:27:37;;;;;;;23.00;10.25;;;23.60;99.90;;;;;;5073263;28;20028;-69
2023/09/12 00:30:03;;;;;;;18.42;10.07;;;23.60;99.90;;;;;;5073252;28;20030;-69
2023/09/12 00:32:28;;;;;;;25.35;11.00;;;23.60;99.90;;;;;;5073157;28;20032;-69
2023/09/12 00:34:54;;;;;;;15.23;9.90;;;23.70;99.90;;;;;;5073319;28;20030;-69
2023/09/12 00:37:20;;;;;;;20.05;10.52;;;23.60;99.90;;;;;;5073187;28;20111;-69
2023/09/12 00:39:47;;;;;;;20.92;10.65;;;23.70;99.90;;;;;;5073006;28;20024;-69
2023/09/12 00:42:13;;;;;;;19.60;11.30;;;23.60;99.90;;;;;;5072036;28;20076;-69
2023/09/12 00:44:38;;;;;;;16.40;10.05;;;23.60;99.90;;;;;;5072501;28;20071;-69
2023/09/12 00:47:05;;;;;;;19.80;10.82;;;23.50;99.90;;;;;;5072937;28;20378;-68
2023/09/12 00:49:31;;;;;;;14.95;10.02;;;23.60;99.90;;;;;;5073224;28;20056;-69
2023/09/12 00:51:57;;;;;;;17.90;11.75;;;23.60;99.90;;;;;;5072785;28;20073;-69
2023/09/12 00:54:24;;;;;;;21.25;12.60;;;23.50;99.90;;;;;;5072750;28;20043;-69
2023/09/12 00:56:50;;;;;;;19.77;11.57;;;23.50;99.90;;;;;;5072801;28;20020;-69
2023/09/12 00:59:17;;;;;;;20.50;12.30;;;23.50;99.90;;;;;;5072676;28;20021;-69
2023/09/12 01:01:43;;;;;;;22.90;13.13;;;23.50;99.90;;;;;;5072752;28;20032;-69
2023/09/12 01:04:10;;;;;;;18.50;11.80;;;23.50;99.90;;;;;;5072607;28;20036;-69
2023/09/12 01:06:36;;;;;;;26.58;11.82;;;23.50;99.90;;;;;;5072297;28;20052;-68
2023/09/12 01:09:02;;;;;;;18.95;11.38;;;23.50;99.90;;;;;;5072817;28;20056;-69
2023/09/12 01:11:28;;;;;;;16.45;10.13;;;23.40;99.90;;;;;;5072414;28;20064;-70
2023/09/12 01:13:54;;;;;;;18.02;9.57;;;23.40;99.90;;;;;;5072523;28;20113;-69
2023/09/12 01:16:20;;;;;;;17.77;9.52;;;23.30;99.90;;;;;;5072466;28;20021;-70
2023/09/12 01:18:46;;;;;;;13.55;9.05;;;23.30;99.90;;;;;;5072299;28;20063;-69
2023/09/12 01:21:38;;;;;;;21.45;9.27;;;23.20;99.90;;;;;;5072362;28;20021;-69
2023/09/12 01:24:13;;;;;;;21.65;10.00;;;23.10;99.90;;;;;;5072123;28;20378;-69
2023/09/12 01:27:21;;;;;;;15.35;10.25;;;23.10;99.90;;;;;;5071085;28;20048;-69
2023/09/12 01:29:49;;;;;;;17.27;10.30;;;23.10;99.90;;;;;;5072107;28;20028;-68
2023/09/12 01:32:17;;;;;;;22.30;10.65;;;23.00;99.90;;;;;;5072140;28;20032;-69
2023/09/12 01:34:42;;;;;;;;;;;22.90;99.90;;;;;;5072386;28;20154;-68
2023/09/12 01:37:08;;;;;;;16.60;9.55;;;22.90;99.90;;;;;;5091273;28;20296;-69
2023/09/12 01:39:33;;;;;;;20.88;10.20;;;22.90;99.90;;;;;;5092219;28;20024;-69
2023/09/12 01:42:00;;;;;;;19.13;11.02;;;22.90;99.90;;;;;;5092397;28;20031;-69
2023/09/12 01:44:28;;;;;;;20.40;11.30;;;22.90;99.90;;;;;;5092551;28;20024;-69
2023/09/12 01:46:56;;;;;;;18.83;12.85;;;22.90;99.90;;;;;;5091103;28;20061;-68
2023/09/12 01:49:25;;;;;;;23.83;11.57;;;23.00;99.90;;;;;;5092041;28;20020;-69
2023/09/12 01:51:51;;;;;;;25.35;13.00;;;23.00;99.90;;;;;;5092080;28;20030;-68
2023/09/12 01:54:19;;;;;;;18.60;12.52;;;23.00;99.90;;;;;;5091777;28;20020;-68
2023/09/12 01:56:45;;;;;;;18.88;12.48;;;23.00;99.90;;;;;;5090052;28;20036;-69
2023/09/12 01:59:11;;;;;;;21.48;12.88;;;23.00;99.90;;;;;;5092014;28;20074;-69
2023/09/12 02:01:37;;;;;;;21.65;12.15;;;23.00;99.90;;;;;;5091918;28;20069;-70
2023/09/12 02:04:08;;;;;;;22.30;12.30;;;23.00;99.90;;;;;;5091285;28;20024;-69
2023/09/12 02:06:34;;;;;;;18.05;12.25;;;23.00;99.90;;;;;;5090600;28;20070;-70
2023/09/12 02:09:00;;;;;;;18.23;11.98;;;23.00;99.90;;;;;;5090756;28;20071;-68
2023/09/12 02:11:26;;;;;;;22.50;12.77;;;23.00;99.90;;;;;;5091856;28;20115;-69
2023/09/12 02:13:52;;;;;;;19.70;12.70;;;22.90;99.90;;;;;;5091825;28;20031;-69
2023/09/12 02:16:18;;;;;;;18.27;11.65;;;22.90;99.90;;;;;;5092071;28;20028;-69
2023/09/12 02:18:43;;;;;;;18.42;12.65;;;22.90;99.90;;;;;;5091669;28;20450;-69
2023/09/12 02:21:09;;;;;;;18.55;12.50;;;23.00;99.90;;;;;;5090649;28;20422;-69
2023/09/12 02:23:35;;;;;;;19.35;11.98;;;22.90;99.90;;;;;;5091565;28;20066;-69
2023/09/12 02:26:00;;;;;;;28.55;13.73;;;22.90;99.90;;;;;;5091526;28;20020;-69
2023/09/12 02:28:26;;;;;;;22.15;13.20;;;22.90;99.90;;;;;;5091891;28;20146;-69
2023/09/12 02:30:52;;;;;;;21.80;11.45;;;22.90;99.90;;;;;;5091537;28;20036;-68
2023/09/12 02:33:17;;;;;;;17.65;13.15;;;22.90;99.90;;;;;;5091728;28;20196;-69
2023/09/12 02:35:43;;;;;;;25.02;14.10;;;22.90;99.90;;;;;;5092134;28;20021;-69
2023/09/12 02:38:09;;;;;;;20.40;13.32;;;22.70;99.90;;;;;;5091494;28;20187;-70
2023/09/12 02:40:34;;;;;;;22.67;12.95;;;22.70;99.90;;;;;;5091500;28;20020;-68
2023/09/12 02:43:00;;;;;;;21.77;13.38;;;22.60;99.90;;;;;;5091706;28;20028;-69
2023/09/12 02:45:26;;;;;;;23.27;13.50;;;22.50;99.90;;;;;;5092056;28;20473;-69
2023/09/12 02:47:51;;;;;;;21.50;13.18;;;22.50;99.90;;;;;;5091467;28;20085;-69
2023/09/12 02:50:17;;;;;;;27.48;13.68;;;22.50;99.90;;;;;;5091323;28;20032;-69
2023/09/12 02:52:42;;;;;;;23.95;13.27;;;22.50;99.90;;;;;;5091370;28;20055;-68
2023/09/12 02:55:10;;;;;;;22.70;14.25;;;22.50;99.90;;;;;;5091431;28;20056;-69
2023/09/12 02:57:36;;;;;;;25.02;13.77;;;22.60;99.90;;;;;;5091369;28;20107;-70
2023/09/12 03:00:02;;;;;;;20.42;13.68;;;22.60;99.90;;;;;;5091628;28;20119;-70
2023/09/12 03:02:29;;;;;;;21.50;14.13;;;22.70;99.90;;;;;;5091486;28;20044;-70
2023/09/12 03:04:55;;;;;;;27.33;13.45;;;22.60;99.90;;;;;;5091239;28;20468;-69
2023/09/12 03:07:20;;;;;;;21.80;14.20;;;22.70;99.90;;;;;;5091173;28;20064;-68
2023/09/12 03:09:49;;;;;;;20.58;13.98;;;22.70;99.90;;;;;;5095223;28;20024;-69
2023/09/12 03:12:15;;;;;;;23.55;15.32;;;22.70;99.90;;;;;;5095211;28;20031;-68
2023/09/12 03:14:41;;;;;;;19.20;13.85;;;22.70;99.90;;;;;;5095026;28;20032;-69
2023/09/12 03:17:09;;;;;;;29.98;14.27;;;22.70;99.90;;;;;;5094161;28;20107;-69
2023/09/12 03:19:35;;;;;;;29.27;16.30;;;22.70;99.90;;;;;;5094880;28;20028;-70
2023/09/12 03:22:00;;;;;;;27.08;16.90;;;22.70;99.90;;;;;;5094899;28;20026;-69
2023/09/12 03:24:28;;;;;;;33.35;16.25;;;22.70;99.90;;;;;;5094854;28;20035;-69
2023/09/12 03:26:54;;;;;;;23.00;15.57;;;22.70;99.90;;;;;;5094851;28;20238;-69
2023/09/12 03:29:20;;;;;;;23.60;15.23;;;22.70;99.90;;;;;;5094902;28;20035;-68
2023/09/12 03:31:45;;;;;;;35.38;15.90;;;22.70;99.90;;;;;;5094714;28;20093;-69
2023/09/12 03:34:11;;;;;;;25.80;16.77;;;22.70;99.90;;;;;;5094915;28;20460;-69
2023/09/12 03:36:36;;;;;;;25.95;16.77;;;22.60;99.90;;;;;;5094955;28;20020;-70
2023/09/12 03:39:05;;;;;;;24.95;17.42;;;22.60;99.90;;;;;;5093609;28;20093;-69
2023/09/12 03:41:30;;;;;;;27.17;17.67;;;22.50;99.90;;;;;;5094702;28;20421;-70
2023/09/12 03:43:56;;;;;;;28.42;17.13;;;22.30;99.90;;;;;;5093465;28;20523;-70
2023/09/12 03:46:22;;;;;;;30.58;17.77;;;22.20;99.90;;;;;;5094503;28;20043;-71
2023/09/12 03:48:48;;;;;;;29.55;16.23;;;22.00;99.90;;;;;;5094429;28;20024;-68
2023/09/12 03:51:14;;;;;;;27.25;17.08;;;22.10;99.90;;;;;;5094542;28;20107;-69
2023/09/12 03:53:39;;;;;;;28.83;16.40;;;22.10;99.90;;;;;;5094284;28;20119;-69
2023/09/12 03:56:06;;;;;;;25.98;16.80;;;22.10;99.90;;;;;;5094212;28;20028;-69
2023/09/12 03:58:31;;;;;;;28.05;18.08;;;22.10;99.90;;;;;;5094119;28;20076;-70
2023/09/12 04:00:57;;;;;;;32.13;17.88;;;22.20;99.90;;;;;;5093250;28;20020;-69
2023/09/12 04:03:23;;;;;;;29.45;18.23;;;22.20;99.90;;;;;;5094112;28;20028;-69
2023/09/12 04:05:50;;;;;;;30.02;17.27;;;22.20;99.90;;;;;;5094157;28;20020;-70
2023/09/12 04:08:16;;;;;;;31.52;19.20;;;22.30;99.90;;;;;;5093782;28;20055;-70
2023/09/12 04:10:43;;;;;;;24.98;16.05;;;22.20;99.90;;;;;;5094000;28;20020;-69
2023/09/12 04:13:09;;;;;;;27.55;16.15;;;22.10;99.90;;;;;;5093824;28;20028;-70
2023/09/12 04:15:34;;;;;;;29.73;15.45;;;22.20;99.90;;;;;;5093938;28;20024;-70
2023/09/12 04:18:00;;;;;;;25.05;15.00;;;22.30;99.90;;;;;;5093948;28;20028;-69
2023/09/12 04:20:26;;;;;;;26.73;15.10;;;22.40;99.90;;;;;;5092836;28;20078;-68
2023/09/12 04:22:51;;;;;;;25.90;15.38;;;22.50;99.90;;;;;;5093696;28;20036;-69
2023/09/12 04:25:19;;;;;;;26.58;15.00;;;22.40;99.90;;;;;;5093966;28;20108;-69
2023/09/12 04:27:45;;;;;;;23.83;14.35;;;22.50;99.90;;;;;;5093592;28;20032;-68
2023/09/12 04:30:11;;;;;;;26.90;15.88;;;22.40;99.90;;;;;;5093579;28;20032;-68
2023/09/12 04:32:37;;;;;;;23.50;13.63;;;22.40;99.90;;;;;;5093732;28;20059;-68
2023/09/12 04:35:03;;;;;;;23.98;13.55;;;22.40;99.90;;;;;;5092388;28;20442;-69
2023/09/12 04:37:29;;;;;;;19.15;13.07;;;22.40;99.90;;;;;;5093806;28;20022;-68
2023/09/12 04:39:55;;;;;;;17.73;11.85;;;22.30;99.90;;;;;;5093317;28;20103;-69
2023/09/12 04:42:20;;;;;;;18.58;11.68;;;22.30;99.90;;;;;;5093398;28;20095;-69
2023/09/12 04:44:46;;;;;;;18.95;12.65;;;22.30;99.90;;;;;;5093276;28;20361;-69
2023/09/12 04:47:12;;;;;;;18.33;12.88;;;22.30;99.90;;;;;;5093165;28;20024;-69
2023/09/12 04:49:39;;;;;;;18.20;12.32;;;22.20;99.90;;;;;;5093290;28;20019;-69
2023/09/12 04:52:06;;;;;;;18.27;12.65;;;22.20;99.90;;;;;;5092155;28;20024;-69
2023/09/12 04:54:31;;;;;;;17.48;12.48;;;22.20;99.90;;;;;;5092038;28;20039;-69
2023/09/12 04:56:57;;;;;;;18.05;12.43;;;22.20;99.90;;;;;;5093299;28;20028;-69
2023/09/12 04:59:22;;;;;;;18.15;10.55;;;22.20;99.90;;;;;;5093012;28;20030;-69
2023/09/12 05:01:48;;;;;;;17.60;11.38;;;22.10;99.90;;;;;;5093201;28;20098;-69
2023/09/12 05:04:14;;;;;;;19.15;12.48;;;22.00;99.90;;;;;;5091653;28;20408;-67
2023/09/12 05:06:39;;;;;;;14.52;11.10;;;22.00;99.90;;;;;;5092268;28;20066;-69
2023/09/12 05:09:05;;;;;;;20.73;12.20;;;22.00;99.90;;;;;;5092774;28;20032;-66
2023/09/12 05:11:31;;;;;;;17.50;10.48;;;22.00;99.90;;;;;;5092708;28;20024;-67
2023/09/12 05:13:57;;;;;;;17.17;10.32;;;21.90;99.90;;;;;;5091616;28;20067;-67
2023/09/12 05:16:23;;;;;;;17.30;10.75;;;21.90;99.90;;;;;;5092558;28;20031;-69
2023/09/12 05:18:49;;;;;;;15.73;9.90;;;21.90;99.90;;;;;;5092782;28;20028;-68
2023/09/12 05:21:15;;;;;;;15.88;10.05;;;21.90;99.90;;;;;;5092831;28;20077;-69
2023/09/12 05:23:41;;;;;;;14.80;9.18;;;21.90;99.90;;;;;;5092447;28;20024;-68
2023/09/12 05:26:07;;;;;;;15.35;10.05;;;21.90;99.90;;;;;;5092518;28;20077;-69
2023/09/12 05:28:34;;;;;;;14.05;9.98;;;21.90;99.90;;;;;;5092267;28;20066;-69
2023/09/12 05:31:00;;;;;;;16.25;9.38;;;21.90;99.90;;;;;;5092457;28;20138;-71
2023/09/12 05:33:25;;;;;;;14.27;9.15;;;21.90;99.90;;;;;;5092113;28;20107;-70
2023/09/12 05:35:51;;;;;;;15.77;9.18;;;21.80;99.90;;;;;;5092273;28;20457;-70
2023/09/12 05:38:17;;;;;;;14.95;8.93;;;21.80;99.90;;;;;;5092162;28;20099;-69
2023/09/12 05:40:42;;;;;;;10.73;7.65;;;21.90;99.90;;;;;;5091895;28;20099;-70
2023/09/12 05:43:08;;;;;;;13.27;8.63;;;22.00;99.90;;;;;;5085534;28;20021;-67
2023/09/12 05:45:34;;;;;;;19.27;9.60;;;21.90;99.90;;;;;;5071609;28;20024;-68
2023/09/12 05:48:00;;;;;;;15.68;9.18;;;21.90;99.90;;;;;;5072157;28;20021;-68
2023/09/12 05:50:25;;;;;;;19.75;10.25;;;21.90;99.90;;;;;;5071983;28;20075;-68
2023/09/12 05:52:51;;;;;;;13.82;8.77;;;21.90;99.90;;;;;;5071556;28;20052;-68
2023/09/12 05:55:20;;;;;;;11.35;7.63;;;21.80;99.90;;;;;;5071583;28;20407;-68
2023/09/12 05:57:47;;;;;;;13.55;6.90;;;21.70;99.90;;;;;;5071536;28;20202;-68
2023/09/12 06:00:15;;;;;;;12.18;5.97;;;21.60;99.90;;;;;;5071679;28;20020;-69
2023/09/12 06:02:42;;;;;;;12.30;7.32;;;21.50;99.90;;;;;;5071929;28;20024;-69
2023/09/12 06:05:08;;;;;;;19.17;6.80;;;21.30;99.90;;;;;;5071315;28;20013;-69
2023/09/12 06:07:34;;;;;;;14.63;6.78;;;21.40;99.90;;;;;;5071634;28;20163;-70
2023/09/12 06:10:00;;;;;;;13.23;5.75;;;21.50;99.90;;;;;;5071399;28;20109;-69
2023/09/12 06:12:26;;;;;;;10.15;6.00;;;21.50;99.90;;;;;;5070313;28;20071;-69
2023/09/12 06:14:54;;;;;;;15.43;6.38;;;21.40;99.90;;;;;;5071639;28;20036;-68
2023/09/12 06:17:19;;;;;;;14.93;6.60;;;21.40;99.90;;;;;;5071340;28;20529;-68
2023/09/12 06:19:46;;;;;;;13.63;7.10;;;21.50;99.90;;;;;;5071421;28;20029;-70
2023/09/12 06:22:12;;;;;;;11.80;5.67;;;21.50;99.90;;;;;;5071525;28;20020;-69
2023/09/12 06:24:39;;;;;;;11.93;4.95;;;21.40;99.90;;;;;;5071180;28;20338;-69
2023/09/12 06:27:04;;;;;;;12.80;5.53;;;21.40;99.90;;;;;;5071622;28;20059;-67
2023/09/12 06:29:30;;;;;;;10.57;5.13;;;21.20;99.90;;;;;;5071331;28;20110;-69
2023/09/12 06:31:56;;;;;;;10.88;5.40;;;21.20;99.90;;;;;;5071236;28;20032;-69
2023/09/12 06:34:22;;;;;;;10.32;4.32;;;21.10;99.90;;;;;;5071200;28;20431;-69
2023/09/12 06:36:48;;;;;;;10.60;4.43;;;21.10;99.90;;;;;;5071113;28;20055;-69
2023/09/12 06:39:13;;;;;;;9.82;4.63;;;21.10;99.90;;;;;;5071118;28;20101;-70
2023/09/12 06:41:39;;;;;;;10.00;4.95;;;21.10;99.90;;;;;;5071099;28;20482;-69
2023/09/12 06:44:06;;;;;;;9.68;5.15;;;21.00;99.90;;;;;;5074155;28;20506;-71
2023/09/12 06:46:35;;;;;;;16.52;5.53;;;21.00;99.90;;;;;;5075601;28;20028;-70
2023/09/12 06:49:02;;;;;;;10.27;4.90;;;20.90;99.90;;;;;;5075072;28;20124;-70
2023/09/12 06:51:28;;;;;;;11.23;5.53;;;20.90;99.90;;;;;;5075498;28;20434;-73
2023/09/12 06:53:53;;;;;;;11.02;5.07;;;20.90;99.90;;;;;;5074267;28;20323;-73
2023/09/12 06:56:19;;;;;;;10.57;5.40;;;21.10;99.90;;;;;;5075070;28;20096;-74
2023/09/12 06:58:44;;;;;;;12.02;5.32;;;21.10;99.90;;;;;;5073994;28;20391;-74
2023/09/12 07:01:10;;;;;;;13.02;5.65;;;21.20;99.90;;;;;;5075073;28;20103;-73
2023/09/12 07:03:36;;;;;;;14.30;5.65;;;21.20;99.90;;;;;;5074353;28;20426;-73
2023/09/12 07:06:03;;;;;;;9.68;5.43;;;21.30;99.90;;;;;;5075029;28;20093;-73
2023/09/12 07:08:32;;;;;;;10.35;5.72;;;21.30;99.90;;;;;;5074825;28;20401;-74
2023/09/12 07:11:05;;;;;;;14.32;5.82;;;21.30;99.90;;;;;;5074109;28;20231;-74
2023/09/12 07:13:32;;;;;;;11.13;6.95;;;21.30;99.90;;;;;;5074996;28;20021;-73
2023/09/12 07:15:58;;;;;;;10.10;6.33;;;21.30;99.90;;;;;;5074887;28;20017;-69
2023/09/12 07:18:23;;;;;;;12.07;7.30;;;21.20;99.90;;;;;;5074602;28;20027;-72
2023/09/12 07:21:00;;;;;;;13.63;7.40;;;21.10;99.90;;;;;;5074698;28;20392;-71
2023/09/12 07:23:26;;;;;;;17.02;7.22;;;21.20;99.90;;;;;;5073795;28;20074;-74
2023/09/12 07:25:52;;;;;;;16.73;8.57;;;21.10;99.90;;;;;;5074690;28;20344;-74
2023/09/12 07:28:19;;;;;;;20.02;8.77;;;21.10;99.90;;;;;;5073446;28;20079;-73
2023/09/12 07:30:48;;;;;;;16.55;9.60;;;21.10;99.90;;;;;;5074856;28;20071;-72
2023/09/12 07:33:14;;;;;;;16.20;9.75;;;21.10;99.90;;;;;;5074454;28;20055;-71
2023/09/12 07:35:39;;;;;;;20.63;10.43;;;21.10;99.90;;;;;;5074950;28;20024;-72
2023/09/12 07:38:05;;;;;;;17.17;10.57;;;21.20;99.90;;;;;;5073270;28;20451;-71
2023/09/12 07:40:31;;;;;;;19.65;11.48;;;21.20;99.90;;;;;;5074233;28;20027;-71
2023/09/12 07:42:56;;;;;;;18.52;10.38;;;21.30;99.90;;;;;;5074236;28;20024;-73
2023/09/12 07:45:22;;;;;;;18.50;10.77;;;21.40;99.90;;;;;;5074088;28;20016;-68
2023/09/12 07:47:48;;;;;;;20.50;11.43;;;21.50;99.90;;;;;;5074033;28;20033;-71
2023/09/12 07:50:14;;;;;;;16.05;10.65;;;21.40;99.90;;;;;;5072706;28;20062;-70
2023/09/12 07:52:40;;;;;;;17.42;10.90;;;21.50;99.90;;;;;;5072790;28;20047;-73
2023/09/12 07:55:07;;;;;;;23.13;10.55;;;21.60;99.90;;;;;;5072666;28;20358;-73
2023/09/12 07:57:34;;;;;;;19.35;11.43;;;21.70;99.90;;;;;;5074061;28;20375;-73
2023/09/12 08:00:00;;;;;;;16.38;10.70;;;21.70;99.90;;;;;;5072966;28;20043;-74
2023/09/12 08:02:27;;;;;;;20.77;10.82;;;21.90;99.90;;;;;;5074039;28;20028;-72
2023/09/12 08:04:56;;;;;;;16.48;9.90;;;22.00;99.90;;;;;;5073863;28;20065;-72
2023/09/12 08:07:21;;;;;;;18.15;10.57;;;22.00;99.90;;;;;;5073519;28;20191;-72
2023/09/12 08:09:55;;;;;;;16.30;10.73;;;22.10;99.90;;;;;;5073642;28;20446;-71
2023/09/12 08:12:23;;;;;;;14.77;10.20;;;22.00;99.90;;;;;;5073658;28;20028;-71
2023/09/12 08:14:49;;;;;;;18.30;11.02;;;21.90;99.90;;;;;;5072740;28;20032;-69
2023/09/12 08:17:15;;;;;;;18.92;11.23;;;21.90;99.90;;;;;;5073904;28;20090;-72
2023/09/12 08:19:41;;;;;;;17.05;11.52;;;21.80;99.90;;;;;;5073635;28;20020;-71
2023/09/12 08:22:08;;;;;;;16.85;11.18;;;21.90;99.90;;;;;;5073241;28;20103;-70
2023/09/12 08:24:35;;;;;;;16.35;11.10;;;21.90;99.90;;;;;;5073165;28;20127;-70
2023/09/12 08:27:01;;;;;;;17.50;11.95;;;22.00;99.90;;;;;;5073406;28;20035;-71
2023/09/12 08:29:32;;;;;;;19.00;12.30;;;22.10;99.90;;;;;;5073439;28;20029;-70
2023/09/12 08:31:58;;;;;;;19.48;12.52;;;22.10;99.90;;;;;;5073778;28;20396;-72
2023/09/12 08:34:24;;;;;;;16.30;12.02;;;22.10;99.90;;;;;;5073321;28;20085;-73
2023/09/12 08:36:51;;;;;;;22.92;12.23;;;22.00;99.90;;;;;;5073111;28;20056;-71
2023/09/12 08:39:22;;;;;;;19.60;11.82;;;22.00;99.90;;;;;;5073131;28;20103;-72
2023/09/12 08:41:48;;;;;;;20.20;12.57;;;22.10;99.90;;;;;;5072928;28;20043;-72
2023/09/12 08:44:15;;;;;;;21.05;12.20;;;22.00;99.90;;;;;;5072876;28;20060;-73
2023/09/12 08:46:42;;;;;;;20.38;12.25;;;22.00;99.90;;;;;;5073348;28;20024;-73
2023/09/12 08:49:09;;;;;;;20.13;12.50;;;22.10;99.90;;;;;;5072743;28;20433;-73
2023/09/12 08:51:37;;;;;;;22.13;13.73;;;22.20;99.90;;;;;;5072880;28;20152;-69
2023/09/12 08:54:04;;;;;;;20.38;12.88;;;22.20;99.90;;;;;;5071681;28;20036;-71
2023/09/12 08:56:31;;;;;;;19.13;13.32;;;22.30;99.90;;;;;;5072621;28;20021;-75
2023/09/12 08:58:58;;;;;;;;;;;22.30;99.90;;;;;;5072061;28;20029;-73
2023/09/12 09:01:27;;;;;;;18.83;12.60;;;22.40;99.90;;;;;;5071445;28;19904;-72
2023/09/12 09:03:53;;;;;;;21.35;10.10;;;22.40;99.90;;;;;;5072565;28;20024;-73
2023/09/12 09:06:21;;;;;;;19.63;11.98;;;22.30;99.90;;;;;;5072142;28;20035;-74
2023/09/12 09:08:48;;;;;;;19.58;9.85;;;22.40;99.90;;;;;;5071460;28;20028;-70
2023/09/12 09:11:14;;;;;;;12.85;8.07;;;22.50;99.90;;;;;;5072477;28;20085;-73
2023/09/12 09:13:40;;;;;;;11.82;7.90;;;22.40;99.90;;;;;;5069212;28;20044;-70
2023/09/12 09:16:13;;;;;;;6.90;4.85;;;22.40;99.90;;;;;;5072688;28;20133;-71
2023/09/12 09:18:59;;;;;;;7.57;4.53;;;22.20;99.90;;;;;;5072730;28;20035;-70
2023/09/12 09:21:31;;;;;;;9.70;4.40;;;22.20;99.90;;;;;;5072636;28;20459;-70
2023/09/12 09:23:59;;;;;;;9.48;4.22;;;21.90;99.90;;;;;;5072492;28;20047;-70
2023/09/12 09:26:25;;;;;;;8.07;4.38;;;22.00;99.90;;;;;;5072490;28;20106;-71
2023/09/12 09:29:05;;;;;;;4.95;3.85;;;22.00;99.90;;;;;;5072099;28;20090;-70
2023/09/12 09:31:32;;;;;;;5.43;4.43;;;22.00;99.90;;;;;;5072025;28;20032;-71
2023/09/12 09:33:59;;;;;;;7.75;4.90;;;21.90;99.90;;;;;;5072608;28;20111;-68
2023/09/12 09:36:25;;;;;;;5.65;4.38;;;21.90;99.90;;;;;;5072650;28;20040;-69
2023/09/12 09:38:51;;;;;;;9.68;5.28;;;21.80;99.90;;;;;;5072176;28;20035;-69
2023/09/12 09:41:21;;;;;;;12.52;5.55;;;21.80;99.90;;;;;;5072137;28;20021;-70
2023/09/12 09:43:52;;;;;;;10.85;5.35;;;21.70;99.90;;;;;;5071699;28;20036;-70
2023/09/12 09:46:18;;;;;;;16.25;5.93;;;21.70;99.90;;;;;;5072057;28;20026;-71
2023/09/12 09:48:51;;;;;;;12.85;5.78;;;21.80;99.90;;;;;;5072036;28;20029;-71
2023/09/12 09:51:17;;;;;;;10.80;5.80;;;21.90;99.90;;;;;;5072010;28;20032;-71
2023/09/12 09:53:43;;;;;;;10.40;5.65;;;21.80;99.90;;;;;;5071946;28;20043;-73
2023/09/12 09:56:15;;;;;;;8.98;5.95;;;21.70;99.90;;;;;;5071798;28;20050;-72
2023/09/12 09:58:57;;;;;;;21.17;10.63;;;21.60;99.90;;;;;;5071644;28;20021;-72
2023/09/12 10:01:31;;;;;;;9.32;5.75;;;21.60;99.90;;;;;;5071931;28;20021;-70
2023/09/12 10:04:01;;;;;;;10.00;5.35;;;21.30;99.90;;;;;;5070348;28;20032;-72
2023/09/12 10:06:28;;;;;;;10.73;5.90;;;21.10;99.90;;;;;;5071569;28;20107;-72
2023/09/12 10:08:55;;;;;;;13.18;6.85;;;21.40;99.90;;;;;;5071662;28;20031;-71
2023/09/12 10:11:24;;;;;;;10.00;6.10;;;21.40;99.90;;;;;;5071488;28;20033;-72
2023/09/12 10:13:54;;;;;;;9.05;6.00;;;21.40;99.90;;;;;;5071747;28;20457;-72
2023/09/12 10:16:44;;;;;;;13.20;6.63;;;21.40;99.90;;;;;;5072075;28;20024;-72
2023/09/12 10:19:19;;;;;;;13.50;6.57;;;21.20;99.90;;;;;;5071150;28;20100;-71
2023/09/12 10:22:16;;;;;;;10.30;6.78;;;21.30;99.90;;;;;;5071246;28;20021;-71
2023/09/12 10:24:45;;;;;;;12.27;6.82;;;21.40;99.90;;;;;;5071434;28;20347;-71
2023/09/12 10:27:12;;;;;;;10.40;6.30;;;21.30;99.90;;;;;;5071492;28;20028;-74
2023/09/12 10:29:38;;;;;;;11.85;6.88;;;21.30;99.90;;;;;;5071284;28;20467;-72
2023/09/12 10:32:04;;;;;;;10.00;6.38;;;21.20;99.90;;;;;;5071444;28;20115;-71
2023/09/12 10:34:32;;;;;;;13.85;6.80;;;21.30;99.90;;;;;;5071226;28;20093;-70
2023/09/12 10:37:04;;;;;;;10.10;5.72;;;21.30;99.90;;;;;;5071191;28;20017;-72
2023/09/12 10:39:31;;;;;;;10.23;5.95;;;21.40;99.90;;;;;;5071339;28;20020;-72
2023/09/12 10:41:58;;;;;;;10.55;5.88;;;21.40;99.90;;;;;;5071243;28;20109;-72
2023/09/12 10:44:25;;;;;;;15.20;8.70;;;21.40;99.90;;;;;;5071303;28;20230;-70
2023/09/12 10:46:53;;;;;;;14.25;8.13;;;21.40;99.90;;;;;;5084327;28;20036;-70
2023/09/12 10:49:19;;;;;;;11.02;7.55;;;21.50;99.90;;;;;;5091841;28;20581;-70
2023/09/12 10:51:47;;;;;;;13.88;6.40;;;21.40;99.90;;;;;;5091668;28;20567;-72
2023/09/12 10:54:23;;;;;;;10.07;5.78;;;21.30;99.90;;;;;;5091528;28;20028;-70
2023/09/12 10:57:06;;;;;;;9.13;5.83;;;21.30;99.90;;;;;;5091964;28;20105;-71
2023/09/12 10:59:35;;;;;;;6.72;5.50;;;21.40;99.90;;;;;;5090402;28;20058;-71
2023/09/12 11:02:32;;;;;;;12.13;6.25;;;21.40;99.90;;;;;;5091218;28;20012;-70
2023/09/12 11:04:59;;;;;;;15.70;6.82;;;21.30;99.90;;;;;;5091392;28;20020;-72
2023/09/12 11:07:45;;;;;;;10.30;6.10;;;21.30;99.90;;;;;;5089981;28;20052;-72
2023/09/12 11:10:18;;;;;;;10.40;6.75;;;21.40;99.90;;;;;;5091016;28;20369;-71
2023/09/12 11:12:45;;;;;;;14.23;8.43;;;21.60;99.90;;;;;;5091628;28;20038;-71
2023/09/12 11:15:11;;;;;;;16.80;8.45;;;21.60;99.90;;;;;;5089952;28;20525;-71
2023/09/12 11:17:42;;;;;;;9.95;7.00;;;21.60;99.90;;;;;;5091367;28;20036;-72
2023/09/12 11:20:11;;;;;;;11.73;7.32;;;21.60;99.90;;;;;;5090985;28;20024;-70
2023/09/12 11:22:39;;;;;;;9.38;7.40;;;21.30;99.90;;;;;;5091224;28;20020;-70
2023/09/12 11:25:15;;;;;;;11.38;7.72;;;21.20;99.90;;;;;;5090913;28;20456;-70
2023/09/12 11:28:01;;;;;;;12.38;7.28;;;21.30;99.90;;;;;;5089906;28;20059;-73
2023/09/12 11:30:30;;;;;;;12.88;7.40;;;21.20;99.90;;;;;;5093018;28;20126;-72
2023/09/12 11:32:57;;;;;;;10.80;6.47;;;21.20;99.90;;;;;;5094631;28;20167;-72
2023/09/12 11:35:25;;;;;;;13.75;7.28;;;21.30;99.90;;;;;;5094936;28;20349;-71
2023/09/12 11:37:55;;;;;;;14.50;8.63;;;21.30;99.90;;;;;;5094584;28;20016;-72
2023/09/12 11:40:33;;;;;;;12.05;7.68;;;21.30;99.90;;;;;;5094697;28;20526;-74
2023/09/12 11:42:58;;;;;;;11.25;7.43;;;21.20;99.90;;;;;;5094410;28;20416;-71
2023/09/12 11:45:25;;;;;;;12.70;7.93;;;21.20;99.90;;;;;;5094441;28;20039;-71
2023/09/12 11:47:51;;;;;;;12.02;6.95;;;21.20;99.90;;;;;;5094466;28;20458;-73
2023/09/12 11:50:26;;;;;;;10.48;7.18;;;21.30;99.90;;;;;;5093213;28;20304;-70
2023/09/12 11:53:11;;;;;;;11.52;7.10;;;21.20;99.90;;;;;;5090935;28;20503;-70
2023/09/12 11:55:42;;;;;;;12.88;7.38;;;21.20;99.90;;;;;;5094910;28;20036;-70
2023/09/12 11:58:08;;;;;;;12.60;7.60;;;21.10;99.90;;;;;;5094484;28;20050;-71
2023/09/12 12:00:33;;;;;;;8.85;6.38;;;20.90;99.90;;;;;;5094393;28;20025;-71
2023/09/12 12:02:59;;;;;;;10.10;6.88;;;20.90;99.90;;;;;;5094539;28;20016;-70
2023/09/12 12:05:25;;;;;;;11.20;7.45;;;21.00;99.90;;;;;;5094363;28;20258;-70
2023/09/12 12:07:51;;;;;;;13.90;7.18;;;21.00;99.90;;;;;;5094133;28;20067;-69
2023/09/12 12:10:17;;;;;;;13.65;8.05;;;21.00;99.90;;;;;;5094313;28;20399;-71
2023/09/12 12:12:46;;;;;;;11.55;7.05;;;21.00;99.90;;;;;;5093179;28;20016;-70
2023/09/12 12:15:13;;;;;;;13.38;7.00;;;21.00;99.90;;;;;;5081191;28;20021;-71
2023/09/12 12:17:41;;;;;;;9.18;6.47;;;20.90;99.90;;;;;;5073931;28;20354;-71
2023/09/12 12:20:10;;;;;;;14.90;6.80;;;20.90;99.90;;;;;;5073912;28;20047;-73
2023/09/12 12:22:37;;;;;;;12.25;7.05;;;20.90;99.90;;;;;;5073636;28;20032;-70
2023/09/12 12:25:08;;;;;;;13.18;6.85;;;21.00;99.90;;;;;;5073791;28;20031;-72
2023/09/12 12:27:38;;;;;;;12.68;10.38;;;21.00;99.90;;;;;;5074200;28;20073;-71
2023/09/12 12:30:10;;;;;;;13.70;7.72;;;20.90;99.90;;;;;;5073960;28;20020;-71
2023/09/12 12:32:46;;;;;;;12.70;7.43;;;20.90;99.90;;;;;;5073662;28;20028;-71
2023/09/12 12:35:21;;;;;;;15.02;10.90;;;21.00;99.90;;;;;;5073747;28;20021;-68